Hamnavoe — VSTY7 — position and weather

sailwx.info

Track history (hours):
 
Tides and Currents Weather Stations Pressure Air Temp Water Temp Dewpoint Dewpoint Depression Visibility Wind Speed Wind Dir Waves Ship Positions

Hamnavoe

Operator: NorthLink Orkey & Shetland Ferries Ltd

Last reported at 2017-Feb-24 19:33 UTC. Time now 2017-Feb-24 19:33 UTC.
Position N 58°45' W 003°30'.

Length 112 m; draft 4.2 m.

Type: Ship. MMSI: 235449000.

Date/timePositionNaut miles runAvg speedWind from/ knotsBaromVisibWave heightAir tempDewpointWater temp
2017-Feb-24 19:33N 58°45' W 003°30'8 8.4
2017-Feb-24 18:33N 58°37' W 003°32'1110.6
2017-Feb-24 17:33N 58°47' W 003°29'1212.2
2017-Feb-24 16:33N 58°58' W 003°18'0 0.0
2017-Feb-24 15:31N 58°58' W 003°18'0 0.0
2017-Feb-24 14:31N 58°58' W 003°18'0 0.0
2017-Feb-24 13:31N 58°58' W 003°18'0 0.0
2017-Feb-24 12:31N 58°58' W 003°18'0 0.0
2017-Feb-24 11:31N 58°58' W 003°18'0 0.0
2017-Feb-24 10:31N 58°58' W 003°18'9 9.1
2017-Feb-24 09:33N 58°51' W 003°28'1513.0
2017-Feb-24 08:26N 58°37' W 003°32'7 8.0
2017-Feb-24 07:33N 58°44' W 003°30'1515.2
2017-Feb-24 06:33N 58°57' W 003°18'0 0.4
2017-Feb-24 05:29N 58°58' W 003°18'0 0.0
2017-Feb-24 04:32N 58°58' W 003°18'0 0.0
2017-Feb-24 03:29N 58°58' W 003°18'0 0.0
2017-Feb-24 02:29N 58°58' W 003°18'0 0.0
2017-Feb-24 01:29N 58°58' W 003°18'0 0.0
2017-Feb-24 00:29N 58°58' W 003°18'0 0.0
2017-Feb-23 23:29N 58°58' W 003°18'0 0.0
2017-Feb-23 22:29N 58°58' W 003°18'0 0.0
2017-Feb-23 21:32N 58°58' W 003°18'0 0.0
2017-Feb-23 20:33N 58°58' W 003°18'1312.9
2017-Feb-23 19:33N 58°46' W 003°29'10 9.6
2017-Feb-23 18:32N 58°37' W 003°32'1111.7
2017-Feb-23 17:33N 58°48' W 003°29'1111.5
2017-Feb-23 16:33N 58°58' W 003°18'0 0.0
2017-Feb-23 15:32N 58°58' W 003°18'0 0.0
2017-Feb-23 14:32N 58°58' W 003°18'0 0.0
2017-Feb-23 13:32N 58°58' W 003°18'0 0.0
2017-Feb-23 12:32N 58°58' W 003°18'0 0.0
2017-Feb-23 11:29N 58°58' W 003°18'0 0.0
2017-Feb-23 10:32N 58°58' W 003°18'9 9.0
2017-Feb-23 09:33N 58°51' W 003°28'1414.4
2017-Feb-23 08:34N 58°37' W 003°32'6 6.0
2017-Feb-23 07:33N 58°43' W 003°31'1616.1
2017-Feb-23 06:33N 58°57' W 003°17'1 0.8
2017-Feb-23 05:32N 58°58' W 003°18'0 0.0
2017-Feb-23 04:32N 58°58' W 003°18'0 0.0
2017-Feb-23 03:32N 58°58' W 003°18'0 0.0
2017-Feb-23 02:32N 58°58' W 003°18'0 0.0
2017-Feb-23 01:32N 58°58' W 003°18'0 0.0
2017-Feb-23 00:32N 58°58' W 003°18'0 0.0
2017-Feb-22 23:29N 58°58' W 003°18'0 0.0
2017-Feb-22 22:32N 58°58' W 003°18'0 0.0
2017-Feb-22 21:32N 58°58' W 003°18'1111.6
2017-Feb-22 20:33N 58°48' W 003°07'1717.0
2017-Feb-22 19:34N 58°37' W 003°32'1 0.5
2017-Feb-22 18:32N 58°37' W 003°32'1515.2
2017-Feb-22 17:33N 58°46' W 003°09'1212.3
2017-Feb-22 16:33N 58°58' W 003°18'0 0.0
2017-Feb-22 15:31N 58°58' W 003°18'0 0.0
2017-Feb-22 14:31N 58°58' W 003°18'0 0.0
2017-Feb-22 13:31N 58°58' W 003°18'0 0.0
2017-Feb-22 12:31N 58°58' W 003°18'0 0.0
2017-Feb-22 11:31N 58°58' W 003°18'0 0.0
2017-Feb-22 10:31N 58°58' W 003°18'0 0.0
2017-Feb-22 09:31N 58°58' W 003°18'0 0.0
2017-Feb-22 08:28N 58°58' W 003°18'0 0.0
2017-Feb-22 07:31N 58°58' W 003°18'0 0.0
2017-Feb-22 06:31N 58°58' W 003°18'0 0.0
2017-Feb-22 05:31N 58°58' W 003°18'0 0.0
2017-Feb-22 04:31N 58°58' W 003°18'0 0.0
2017-Feb-22 03:31N 58°58' W 003°18'0 0.0
2017-Feb-22 02:31N 58°58' W 003°18'0 0.0
2017-Feb-22 01:31N 58°58' W 003°18'0 0.0
2017-Feb-22 00:31N 58°58' W 003°18'0 0.0
2017-Feb-21 23:31N 58°58' W 003°18'0 0.0
2017-Feb-21 22:31N 58°58' W 003°18'0 0.0
2017-Feb-21 21:31N 58°58' W 003°18'6 6.6
2017-Feb-21 20:33N 58°52' W 003°11'1414.2
2017-Feb-21 19:33N 58°41' W 003°27'5 5.0
2017-Feb-21 18:33N 58°37' W 003°32'1515.3
2017-Feb-21 17:33N 58°52' W 003°30'9 8.7
2017-Feb-21 16:34N 58°58' W 003°18'0 0.0
2017-Feb-21 15:31N 58°58' W 003°18'0 0.0
2017-Feb-21 14:31N 58°58' W 003°18'0 0.0
2017-Feb-21 13:31N 58°58' W 003°18'0 0.0
2017-Feb-21 12:31N 58°58' W 003°18'0 0.0
2017-Feb-21 11:31N 58°58' W 003°18'0 0.0
2017-Feb-21 10:31N 58°58' W 003°18'8 8.7
2017-Feb-21 09:33N 58°51' W 003°28'1514.9
2017-Feb-21 08:33N 58°37' W 003°32'7 7.0
2017-Feb-21 07:33N 58°44' W 003°30'1514.6
2017-Feb-21 06:33N 58°57' W 003°18'1 1.0
2017-Feb-21 05:31N 58°58' W 003°18'0 0.0
2017-Feb-21 04:28N 58°58' W 003°18'0 0.0
2017-Feb-21 03:31N 58°58' W 003°18'0 0.0
2017-Feb-21 02:31N 58°58' W 003°18'0 0.0
2017-Feb-21 01:31N 58°58' W 003°18'0 0.0
2017-Feb-21 00:31N 58°58' W 003°18'0 0.0
2017-Feb-20 23:31N 58°58' W 003°18'0 0.0
2017-Feb-20 22:28N 58°58' W 003°18'0 0.0
2017-Feb-20 21:31N 58°58' W 003°18'2 2.0
2017-Feb-20 20:33N 58°57' W 003°21'1615.7
2017-Feb-20 19:34N 58°42' W 003°30'5 5.3
2017-Feb-20 18:33N 58°37' W 003°32'1313.1
2017-Feb-20 17:33N 58°50' W 003°30'10 8.0
2017-Feb-20 16:16N 58°58' W 003°18'0 0.0
2017-Feb-20 14:10N 58°58' W 003°18'0 0.0
2017-Feb-20 13:28N 58°58' W 003°18'0 0.0
2017-Feb-20 12:28N 58°58' W 003°18'0 0.0
2017-Feb-20 11:28N 58°58' W 003°18'0 0.0
2017-Feb-20 10:28N 58°58' W 003°18'910.0
2017-Feb-20 09:33N 58°51' W 003°29'1413.1
2017-Feb-20 08:29N 58°37' W 003°32'7 7.0
2017-Feb-20 07:33N 58°43' W 003°31'1514.9
2017-Feb-20 06:33N 58°57' W 003°19'1 1.2
2017-Feb-20 05:29N 58°58' W 003°18'0 0.0
2017-Feb-20 04:32N 58°58' W 003°18'0 0.0
2017-Feb-20 03:26N 58°58' W 003°18'0 0.0
2017-Feb-20 02:32N 58°58' W 003°18'0 0.0
2017-Feb-20 01:32N 58°58' W 003°18'0 0.0
2017-Feb-20 00:32N 58°58' W 003°18'0 0.0
2017-Feb-19 23:32N 58°58' W 003°18'0 0.0
2017-Feb-19 22:32N 58°58' W 003°18'0 0.0
2017-Feb-19 21:32N 58°58' W 003°18'0 0.0
2017-Feb-19 20:33N 58°58' W 003°18'1111.0
2017-Feb-19 19:34N 58°48' W 003°29'1210.4
2017-Feb-19 18:25N 58°37' W 003°32'910.9
2017-Feb-19 17:33N 58°46' W 003°29'1313.4
2017-Feb-19 16:33N 58°58' W 003°18'0 0.0
2017-Feb-19 14:28N 58°58' W 003°18'0 0.0
2017-Feb-19 13:33N 58°58' W 003°18'1211.8
2017-Feb-19 12:33N 58°47' W 003°29'1110.2
2017-Feb-19 11:29N 58°37' W 003°32'0 0.0
2017-Feb-19 10:33N 58°37' W 003°32'1515.3
2017-Feb-19 09:33N 58°52' W 003°28'8 7.4
2017-Feb-19 08:28N 58°58' W 003°18'0 0.0
2017-Feb-19 07:31N 58°58' W 003°18'0 0.0
2017-Feb-19 06:31N 58°58' W 003°18'0 0.0
2017-Feb-19 05:31N 58°58' W 003°18'0 0.0
2017-Feb-19 04:31N 58°58' W 003°18'0 0.0
2017-Feb-19 03:31N 58°58' W 003°18'0 0.0
2017-Feb-19 02:31N 58°58' W 003°18'0 0.0
2017-Feb-19 01:31N 58°58' W 003°18'0 0.0
2017-Feb-19 00:31N 58°58' W 003°18'0 0.0
2017-Feb-18 23:31N 58°58' W 003°18'0 0.0
2017-Feb-18 22:31N 58°58' W 003°18'0 0.0
2017-Feb-18 21:31N 58°58' W 003°18'0 0.0
2017-Feb-18 20:31N 58°58' W 003°18'1111.5
2017-Feb-18 19:33N 58°48' W 003°29'1211.7
2017-Feb-18 18:32N 58°37' W 003°32'1110.9
2017-Feb-18 17:33N 58°47' W 003°29'1212.2
2017-Feb-18 16:33N 58°58' W 003°18'0 0.0
2017-Feb-18 15:32N 58°58' W 003°18'0 0.0
2017-Feb-18 14:32N 58°58' W 003°18'0 0.0
2017-Feb-18 13:33N 58°58' W 003°18'1110.8
2017-Feb-18 12:33N 58°49' W 003°29'1211.7
2017-Feb-18 11:31N 58°37' W 003°32'0 0.0
2017-Feb-18 10:34N 58°37' W 003°32'1414.5
2017-Feb-18 09:33N 58°51' W 003°28'9 8.0
2017-Feb-18 08:28N 58°58' W 003°18'0 0.0
2017-Feb-18 07:31N 58°58' W 003°18'0 0.0
2017-Feb-18 06:28N 58°58' W 003°18'0 0.0
2017-Feb-18 05:31N 58°58' W 003°18'0 0.0
2017-Feb-18 04:31N 58°58' W 003°18'0 0.0
2017-Feb-18 03:31N 58°58' W 003°18'0 0.0
2017-Feb-18 02:31N 58°58' W 003°18'0 0.0
2017-Feb-18 01:31N 58°58' W 003°18'0 0.0
2017-Feb-18 00:31N 58°58' W 003°18'0 0.0
2017-Feb-17 23:31N 58°58' W 003°18'0 0.0
2017-Feb-17 22:28N 58°58' W 003°18'0 0.0
2017-Feb-17 21:31N 58°58' W 003°18'0 0.0
2017-Feb-17 20:28N 58°58' W 003°18'1111.7
2017-Feb-17 19:33N 58°49' W 003°29'1212.1
2017-Feb-17 18:32N 58°37' W 003°32'1010.0
2017-Feb-17 17:33N 58°46' W 003°29'1313.0
2017-Feb-17 16:34N 58°58' W 003°18'0 0.0
2017-Feb-17 15:33N 58°58' W 003°18'0 0.0
2017-Feb-17 14:33N 58°58' W 003°18'0 0.0
2017-Feb-17 13:33N 58°58' W 003°18'0 0.0
2017-Feb-17 12:33N 58°58' W 003°18'0 0.0
2017-Feb-17 11:33N 58°58' W 003°18'0 0.0
2017-Feb-17 10:33N 58°58' W 003°18'7 7.0
2017-Feb-17 09:33N 58°53' W 003°27'1716.6
2017-Feb-17 08:33N 58°37' W 003°32'6 6.0
2017-Feb-17 07:33N 58°43' W 003°31'1616.1
2017-Feb-17 06:33N 58°57' W 003°18'1 0.6
2017-Feb-17 05:33N 58°58' W 003°18'0 0.0
2017-Feb-17 04:33N 58°58' W 003°18'0 0.0
2017-Feb-17 03:33N 58°58' W 003°18'0 0.0
2017-Feb-17 02:33N 58°58' W 003°18'0 0.0
2017-Feb-17 01:33N 58°58' W 003°18'0 0.0
2017-Feb-17 00:33N 58°58' W 003°18'0 0.0
2017-Feb-16 23:33N 58°58' W 003°18'0 0.0
2017-Feb-16 22:33N 58°58' W 003°18'0 0.0
2017-Feb-16 21:33N 58°58' W 003°18'0 0.0
2017-Feb-16 20:33N 58°58' W 003°18'1211.8
2017-Feb-16 19:33N 58°48' W 003°29'1111.0
2017-Feb-16 18:33N 58°37' W 003°32'1111.5
2017-Feb-16 17:33N 58°48' W 003°29'1111.5
2017-Feb-16 16:33N 58°58' W 003°18'0 0.0
2017-Feb-16 15:33N 58°58' W 003°18'0 0.0
2017-Feb-16 14:33N 58°58' W 003°18'0 0.0
2017-Feb-16 13:33N 58°58' W 003°18'0 0.0
2017-Feb-16 12:33N 58°58' W 003°18'0 0.0
2017-Feb-16 11:33N 58°58' W 003°18'0 0.0
2017-Feb-16 10:33N 58°58' W 003°18'8 7.7
2017-Feb-16 09:33N 58°52' W 003°28'1615.7
2017-Feb-16 08:33N 58°37' W 003°32'7 7.1
2017-Feb-16 07:32N 58°44' W 003°31'1515.3
2017-Feb-16 06:33N 58°57' W 003°18'1 0.5
2017-Feb-16 05:32N 58°58' W 003°18'0 0.0
2017-Feb-16 04:33N 58°58' W 003°18'0 0.0
2017-Feb-16 03:33N 58°58' W 003°18'0 0.0
2017-Feb-16 02:33N 58°58' W 003°18'0 0.0
2017-Feb-16 01:33N 58°58' W 003°18'0 0.0
2017-Feb-16 00:33N 58°58' W 003°18'0 0.0
2017-Feb-15 23:33N 58°58' W 003°18'0 0.0
2017-Feb-15 22:33N 58°58' W 003°18'0 0.0
2017-Feb-15 21:33N 58°58' W 003°18'0 0.0
2017-Feb-15 20:33N 58°58' W 003°18'1111.1
2017-Feb-15 19:33N 58°48' W 003°29'1211.9
2017-Feb-15 18:33N 58°37' W 003°32'1010.5
2017-Feb-15 17:33N 58°47' W 003°29'1212.3
2017-Feb-15 16:33N 58°58' W 003°18'0 0.0
2017-Feb-15 15:31N 58°58' W 003°18'0 0.0
2017-Feb-15 14:31N 58°58' W 003°18'0 0.0
2017-Feb-15 13:31N 58°58' W 003°18'0 0.0
2017-Feb-15 12:31N 58°58' W 003°18'0 0.0
2017-Feb-15 11:31N 58°58' W 003°18'0 0.0
2017-Feb-15 10:31N 58°58' W 003°18'7 7.3
2017-Feb-15 09:33N 58°53' W 003°27'1616.3
2017-Feb-15 08:33N 58°37' W 003°32'6 5.6
2017-Feb-15 07:33N 58°42' W 003°30'1616.3
2017-Feb-15 06:33N 58°57' W 003°17'1 0.6
2017-Feb-15 05:31N 58°58' W 003°18'0 0.0
2017-Feb-15 04:31N 58°58' W 003°18'0 0.0
2017-Feb-15 03:31N 58°58' W 003°18'0 0.0
2017-Feb-15 02:31N 58°58' W 003°18'0 0.0
2017-Feb-15 01:31N 58°58' W 003°18'0 0.0
2017-Feb-15 00:31N 58°58' W 003°18'0 0.0
2017-Feb-14 23:31N 58°58' W 003°18'0 0.0
2017-Feb-14 22:31N 58°58' W 003°18'0 0.0
2017-Feb-14 21:31N 58°58' W 003°18'0 0.0
2017-Feb-14 20:32N 58°58' W 003°18'1111.3
2017-Feb-14 19:33N 58°48' W 003°29'1211.9
2017-Feb-14 18:33N 58°37' W 003°32'  
Track history (hours):
 
Tides and Currents Weather Stations Pressure Air Temp Water Temp Dewpoint Dewpoint Depression Visibility Wind Speed Wind Dir Waves Ship Positions

Hamnavoe

Operator: NorthLink Orkey & Shetland Ferries Ltd

Last reported at 2017-Feb-24 19:33 UTC. Time now 2017-Feb-24 19:33 UTC.
Position N 58°45' W 003°30'.

Length 112 m; draft 4.2 m.

Type: Ship. MMSI: 235449000.

Date/timePositionNaut miles runAvg speedWind from/ knotsBaromVisibWave heightAir tempDewpointWater temp
2017-Feb-24 19:33N 58°45' W 003°30'8 8.4
2017-Feb-24 18:33N 58°37' W 003°32'1110.6
2017-Feb-24 17:33N 58°47' W 003°29'1212.2
2017-Feb-24 16:33N 58°58' W 003°18'0 0.0
2017-Feb-24 15:31N 58°58' W 003°18'0 0.0
2017-Feb-24 14:31N 58°58' W 003°18'0 0.0
2017-Feb-24 13:31N 58°58' W 003°18'0 0.0
2017-Feb-24 12:31N 58°58' W 003°18'0 0.0
2017-Feb-24 11:31N 58°58' W 003°18'0 0.0
2017-Feb-24 10:31N 58°58' W 003°18'9 9.1
2017-Feb-24 09:33N 58°51' W 003°28'1513.0
2017-Feb-24 08:26N 58°37' W 003°32'7 8.0
2017-Feb-24 07:33N 58°44' W 003°30'1515.2
2017-Feb-24 06:33N 58°57' W 003°18'0 0.4
2017-Feb-24 05:29N 58°58' W 003°18'0 0.0
2017-Feb-24 04:32N 58°58' W 003°18'0 0.0
2017-Feb-24 03:29N 58°58' W 003°18'0 0.0
2017-Feb-24 02:29N 58°58' W 003°18'0 0.0
2017-Feb-24 01:29N 58°58' W 003°18'0 0.0
2017-Feb-24 00:29N 58°58' W 003°18'0 0.0
2017-Feb-23 23:29N 58°58' W 003°18'0 0.0
2017-Feb-23 22:29N 58°58' W 003°18'0 0.0
2017-Feb-23 21:32N 58°58' W 003°18'0 0.0
2017-Feb-23 20:33N 58°58' W 003°18'1312.9
2017-Feb-23 19:33N 58°46' W 003°29'10 9.6
2017-Feb-23 18:32N 58°37' W 003°32'1111.7
2017-Feb-23 17:33N 58°48' W 003°29'1111.5
2017-Feb-23 16:33N 58°58' W 003°18'0 0.0
2017-Feb-23 15:32N 58°58' W 003°18'0 0.0
2017-Feb-23 14:32N 58°58' W 003°18'0 0.0
2017-Feb-23 13:32N 58°58' W 003°18'0 0.0
2017-Feb-23 12:32N 58°58' W 003°18'0 0.0
2017-Feb-23 11:29N 58°58' W 003°18'0 0.0
2017-Feb-23 10:32N 58°58' W 003°18'9 9.0
2017-Feb-23 09:33N 58°51' W 003°28'1414.4
2017-Feb-23 08:34N 58°37' W 003°32'6 6.0
2017-Feb-23 07:33N 58°43' W 003°31'1616.1
2017-Feb-23 06:33N 58°57' W 003°17'1 0.8
2017-Feb-23 05:32N 58°58' W 003°18'0 0.0
2017-Feb-23 04:32N 58°58' W 003°18'0 0.0
2017-Feb-23 03:32N 58°58' W 003°18'0 0.0
2017-Feb-23 02:32N 58°58' W 003°18'0 0.0
2017-Feb-23 01:32N 58°58' W 003°18'0 0.0
2017-Feb-23 00:32N 58°58' W 003°18'0 0.0
2017-Feb-22 23:29N 58°58' W 003°18'0 0.0
2017-Feb-22 22:32N 58°58' W 003°18'0 0.0
2017-Feb-22 21:32N 58°58' W 003°18'1111.6
2017-Feb-22 20:33N 58°48' W 003°07'1717.0
2017-Feb-22 19:34N 58°37' W 003°32'1 0.5
2017-Feb-22 18:32N 58°37' W 003°32'1515.2
2017-Feb-22 17:33N 58°46' W 003°09'1212.3
2017-Feb-22 16:33N 58°58' W 003°18'0 0.0
2017-Feb-22 15:31N 58°58' W 003°18'0 0.0
2017-Feb-22 14:31N 58°58' W 003°18'0 0.0
2017-Feb-22 13:31N 58°58' W 003°18'0 0.0
2017-Feb-22 12:31N 58°58' W 003°18'0 0.0
2017-Feb-22 11:31N 58°58' W 003°18'0 0.0
2017-Feb-22 10:31N 58°58' W 003°18'0 0.0
2017-Feb-22 09:31N 58°58' W 003°18'0 0.0
2017-Feb-22 08:28N 58°58' W 003°18'0 0.0
2017-Feb-22 07:31N 58°58' W 003°18'0 0.0
2017-Feb-22 06:31N 58°58' W 003°18'0 0.0
2017-Feb-22 05:31N 58°58' W 003°18'0 0.0
2017-Feb-22 04:31N 58°58' W 003°18'0 0.0
2017-Feb-22 03:31N 58°58' W 003°18'0 0.0
2017-Feb-22 02:31N 58°58' W 003°18'0 0.0
2017-Feb-22 01:31N 58°58' W 003°18'0 0.0
2017-Feb-22 00:31N 58°58' W 003°18'0 0.0
2017-Feb-21 23:31N 58°58' W 003°18'0 0.0
2017-Feb-21 22:31N 58°58' W 003°18'0 0.0
2017-Feb-21 21:31N 58°58' W 003°18'6 6.6
2017-Feb-21 20:33N 58°52' W 003°11'1414.2
2017-Feb-21 19:33N 58°41' W 003°27'5 5.0
2017-Feb-21 18:33N 58°37' W 003°32'1515.3
2017-Feb-21 17:33N 58°52' W 003°30'9 8.7
2017-Feb-21 16:34N 58°58' W 003°18'0 0.0
2017-Feb-21 15:31N 58°58' W 003°18'0 0.0
2017-Feb-21 14:31N 58°58' W 003°18'0 0.0
2017-Feb-21 13:31N 58°58' W 003°18'0 0.0
2017-Feb-21 12:31N 58°58' W 003°18'0 0.0
2017-Feb-21 11:31N 58°58' W 003°18'0 0.0
2017-Feb-21 10:31N 58°58' W 003°18'8 8.7
2017-Feb-21 09:33N 58°51' W 003°28'1514.9
2017-Feb-21 08:33N 58°37' W 003°32'7 7.0
2017-Feb-21 07:33N 58°44' W 003°30'1514.6
2017-Feb-21 06:33N 58°57' W 003°18'1 1.0
2017-Feb-21 05:31N 58°58' W 003°18'0 0.0
2017-Feb-21 04:28N 58°58' W 003°18'0 0.0
2017-Feb-21 03:31N 58°58' W 003°18'0 0.0
2017-Feb-21 02:31N 58°58' W 003°18'0 0.0
2017-Feb-21 01:31N 58°58' W 003°18'0 0.0
2017-Feb-21 00:31N 58°58' W 003°18'0 0.0
2017-Feb-20 23:31N 58°58' W 003°18'0 0.0
2017-Feb-20 22:28N 58°58' W 003°18'0 0.0
2017-Feb-20 21:31N 58°58' W 003°18'2 2.0
2017-Feb-20 20:33N 58°57' W 003°21'1615.7
2017-Feb-20 19:34N 58°42' W 003°30'5 5.3
2017-Feb-20 18:33N 58°37' W 003°32'1313.1
2017-Feb-20 17:33N 58°50' W 003°30'10 8.0
2017-Feb-20 16:16N 58°58' W 003°18'0 0.0
2017-Feb-20 14:10N 58°58' W 003°18'0 0.0
2017-Feb-20 13:28N 58°58' W 003°18'0 0.0
2017-Feb-20 12:28N 58°58' W 003°18'0 0.0
2017-Feb-20 11:28N 58°58' W 003°18'0 0.0
2017-Feb-20 10:28N 58°58' W 003°18'910.0
2017-Feb-20 09:33N 58°51' W 003°29'1413.1
2017-Feb-20 08:29N 58°37' W 003°32'7 7.0
2017-Feb-20 07:33N 58°43' W 003°31'1514.9
2017-Feb-20 06:33N 58°57' W 003°19'1 1.2
2017-Feb-20 05:29N 58°58' W 003°18'0 0.0
2017-Feb-20 04:32N 58°58' W 003°18'0 0.0
2017-Feb-20 03:26N 58°58' W 003°18'0 0.0
2017-Feb-20 02:32N 58°58' W 003°18'0 0.0
2017-Feb-20 01:32N 58°58' W 003°18'0 0.0
2017-Feb-20 00:32N 58°58' W 003°18'0 0.0
2017-Feb-19 23:32N 58°58' W 003°18'0 0.0
2017-Feb-19 22:32N 58°58' W 003°18'0 0.0
2017-Feb-19 21:32N 58°58' W 003°18'0 0.0
2017-Feb-19 20:33N 58°58' W 003°18'1111.0
2017-Feb-19 19:34N 58°48' W 003°29'1210.4
2017-Feb-19 18:25N 58°37' W 003°32'910.9
2017-Feb-19 17:33N 58°46' W 003°29'1313.4
2017-Feb-19 16:33N 58°58' W 003°18'0 0.0
2017-Feb-19 14:28N 58°58' W 003°18'0 0.0
2017-Feb-19 13:33N 58°58' W 003°18'1211.8
2017-Feb-19 12:33N 58°47' W 003°29'1110.2
2017-Feb-19 11:29N 58°37' W 003°32'0 0.0
2017-Feb-19 10:33N 58°37' W 003°32'1515.3
2017-Feb-19 09:33N 58°52' W 003°28'8 7.4
2017-Feb-19 08:28N 58°58' W 003°18'0 0.0
2017-Feb-19 07:31N 58°58' W 003°18'0 0.0
2017-Feb-19 06:31N 58°58' W 003°18'0 0.0
2017-Feb-19 05:31N 58°58' W 003°18'0 0.0
2017-Feb-19 04:31N 58°58' W 003°18'0 0.0
2017-Feb-19 03:31N 58°58' W 003°18'0 0.0
2017-Feb-19 02:31N 58°58' W 003°18'0 0.0
2017-Feb-19 01:31N 58°58' W 003°18'0 0.0
2017-Feb-19 00:31N 58°58' W 003°18'0 0.0
2017-Feb-18 23:31N 58°58' W 003°18'0 0.0
2017-Feb-18 22:31N 58°58' W 003°18'0 0.0
2017-Feb-18 21:31N 58°58' W 003°18'0 0.0
2017-Feb-18 20:31N 58°58' W 003°18'1111.5
2017-Feb-18 19:33N 58°48' W 003°29'1211.7
2017-Feb-18 18:32N 58°37' W 003°32'1110.9
2017-Feb-18 17:33N 58°47' W 003°29'1212.2
2017-Feb-18 16:33N 58°58' W 003°18'0 0.0
2017-Feb-18 15:32N 58°58' W 003°18'0 0.0
2017-Feb-18 14:32N 58°58' W 003°18'0 0.0
2017-Feb-18 13:33N 58°58' W 003°18'1110.8
2017-Feb-18 12:33N 58°49' W 003°29'1211.7
2017-Feb-18 11:31N 58°37' W 003°32'0 0.0
2017-Feb-18 10:34N 58°37' W 003°32'1414.5
2017-Feb-18 09:33N 58°51' W 003°28'9 8.0
2017-Feb-18 08:28N 58°58' W 003°18'0 0.0
2017-Feb-18 07:31N 58°58' W 003°18'0 0.0
2017-Feb-18 06:28N 58°58' W 003°18'0 0.0
2017-Feb-18 05:31N 58°58' W 003°18'0 0.0
2017-Feb-18 04:31N 58°58' W 003°18'0 0.0
2017-Feb-18 03:31N 58°58' W 003°18'0 0.0
2017-Feb-18 02:31N 58°58' W 003°18'0 0.0
2017-Feb-18 01:31N 58°58' W 003°18'0 0.0
2017-Feb-18 00:31N 58°58' W 003°18'0 0.0
2017-Feb-17 23:31N 58°58' W 003°18'0 0.0
2017-Feb-17 22:28N 58°58' W 003°18'0 0.0
2017-Feb-17 21:31N 58°58' W 003°18'0 0.0
2017-Feb-17 20:28N 58°58' W 003°18'1111.7
2017-Feb-17 19:33N 58°49' W 003°29'1212.1
2017-Feb-17 18:32N 58°37' W 003°32'1010.0
2017-Feb-17 17:33N 58°46' W 003°29'1313.0
2017-Feb-17 16:34N 58°58' W 003°18'0 0.0
2017-Feb-17 15:33N 58°58' W 003°18'0 0.0
2017-Feb-17 14:33N 58°58' W 003°18'0 0.0
2017-Feb-17 13:33N 58°58' W 003°18'0 0.0
2017-Feb-17 12:33N 58°58' W 003°18'0 0.0
2017-Feb-17 11:33N 58°58' W 003°18'0 0.0
2017-Feb-17 10:33N 58°58' W 003°18'7 7.0
2017-Feb-17 09:33N 58°53' W 003°27'1716.6
2017-Feb-17 08:33N 58°37' W 003°32'6 6.0
2017-Feb-17 07:33N 58°43' W 003°31'1616.1
2017-Feb-17 06:33N 58°57' W 003°18'1 0.6
2017-Feb-17 05:33N 58°58' W 003°18'0 0.0
2017-Feb-17 04:33N 58°58' W 003°18'0 0.0
2017-Feb-17 03:33N 58°58' W 003°18'0 0.0
2017-Feb-17 02:33N 58°58' W 003°18'0 0.0
2017-Feb-17 01:33N 58°58' W 003°18'0 0.0
2017-Feb-17 00:33N 58°58' W 003°18'0 0.0
2017-Feb-16 23:33N 58°58' W 003°18'0 0.0
2017-Feb-16 22:33N 58°58' W 003°18'0 0.0
2017-Feb-16 21:33N 58°58' W 003°18'0 0.0
2017-Feb-16 20:33N 58°58' W 003°18'1211.8
2017-Feb-16 19:33N 58°48' W 003°29'1111.0
2017-Feb-16 18:33N 58°37' W 003°32'1111.5
2017-Feb-16 17:33N 58°48' W 003°29'1111.5
2017-Feb-16 16:33N 58°58' W 003°18'0 0.0
2017-Feb-16 15:33N 58°58' W 003°18'0 0.0
2017-Feb-16 14:33N 58°58' W 003°18'0 0.0
2017-Feb-16 13:33N 58°58' W 003°18'0 0.0
2017-Feb-16 12:33N 58°58' W 003°18'0 0.0
2017-Feb-16 11:33N 58°58' W 003°18'0 0.0
2017-Feb-16 10:33N 58°58' W 003°18'8 7.7
2017-Feb-16 09:33N 58°52' W 003°28'1615.7
2017-Feb-16 08:33N 58°37' W 003°32'7 7.1
2017-Feb-16 07:32N 58°44' W 003°31'1515.3
2017-Feb-16 06:33N 58°57' W 003°18'1 0.5
2017-Feb-16 05:32N 58°58' W 003°18'0 0.0
2017-Feb-16 04:33N 58°58' W 003°18'0 0.0
2017-Feb-16 03:33N 58°58' W 003°18'0 0.0
2017-Feb-16 02:33N 58°58' W 003°18'0 0.0
2017-Feb-16 01:33N 58°58' W 003°18'0 0.0
2017-Feb-16 00:33N 58°58' W 003°18'0 0.0
2017-Feb-15 23:33N 58°58' W 003°18'0 0.0
2017-Feb-15 22:33N 58°58' W 003°18'0 0.0
2017-Feb-15 21:33N 58°58' W 003°18'0 0.0
2017-Feb-15 20:33N 58°58' W 003°18'1111.1
2017-Feb-15 19:33N 58°48' W 003°29'1211.9
2017-Feb-15 18:33N 58°37' W 003°32'1010.5
2017-Feb-15 17:33N 58°47' W 003°29'1212.3
2017-Feb-15 16:33N 58°58' W 003°18'0 0.0
2017-Feb-15 15:31N 58°58' W 003°18'0 0.0
2017-Feb-15 14:31N 58°58' W 003°18'0 0.0
2017-Feb-15 13:31N 58°58' W 003°18'0 0.0
2017-Feb-15 12:31N 58°58' W 003°18'0 0.0
2017-Feb-15 11:31N 58°58' W 003°18'0 0.0
2017-Feb-15 10:31N 58°58' W 003°18'7 7.3
2017-Feb-15 09:33N 58°53' W 003°27'1616.3
2017-Feb-15 08:33N 58°37' W 003°32'6 5.6
2017-Feb-15 07:33N 58°42' W 003°30'1616.3
2017-Feb-15 06:33N 58°57' W 003°17'1 0.6
2017-Feb-15 05:31N 58°58' W 003°18'0 0.0
2017-Feb-15 04:31N 58°58' W 003°18'0 0.0
2017-Feb-15 03:31N 58°58' W 003°18'0 0.0
2017-Feb-15 02:31N 58°58' W 003°18'0 0.0
2017-Feb-15 01:31N 58°58' W 003°18'0 0.0
2017-Feb-15 00:31N 58°58' W 003°18'0 0.0
2017-Feb-14 23:31N 58°58' W 003°18'0 0.0
2017-Feb-14 22:31N 58°58' W 003°18'0 0.0
2017-Feb-14 21:31N 58°58' W 003°18'0 0.0
2017-Feb-14 20:32N 58°58' W 003°18'1111.3
2017-Feb-14 19:33N 58°48' W 003°29'1211.9
2017-Feb-14 18:33N 58°37' W 003°32'  

Dump ship's entire track history